EWG84P EDDK-EDDM
Flight info
| Callsign | EWG84P |
|---|---|
| Flight time | 0h 46m |
| Altitude | 33000 |
| Route | KUMIK1R KUMIK Y854 BOMBI T104 ROKIL ROKIL1B |
| Aircraft | A320/M-SDE3FGHIRWY/LB1 |
Departure
| Time | 2026-05-07 16:52 |
|---|---|
| Airport | Cologne Bonn Airport (EDDK) |
Arrival
| Time | 2026-05-07 17:38 |
|---|---|
| Airport | Munich Airport (EDDM) |
| Time | Latitude | Longitude | Altitude | Speed | Heading |
|---|---|---|---|---|---|
| 2026-05-07 15:33 | 50.88057 | 7.12190 | 236 ft | 0 kts | 216° |
| 2026-05-07 16:38 | 50.88064 | 7.12198 | 232 ft | 4 kts | 216° |
| 2026-05-07 16:38 | 50.88086 | 7.12223 | 232 ft | 4 kts | 216° |
| 2026-05-07 16:39 | 50.88103 | 7.12242 | 233 ft | 4 kts | 201° |
| 2026-05-07 16:39 | 50.88127 | 7.12246 | 232 ft | 4 kts | 152° |
| 2026-05-07 16:39 | 50.88142 | 7.12227 | 234 ft | 0 kts | 126° |
| 2026-05-07 16:42 | 50.88124 | 7.12267 | 234 ft | 7 kts | 126° |
| 2026-05-07 16:42 | 50.88097 | 7.12327 | 232 ft | 6 kts | 126° |
| 2026-05-07 16:42 | 50.88065 | 7.12394 | 232 ft | 11 kts | 129° |
| 2026-05-07 16:43 | 50.88017 | 7.12473 | 232 ft | 9 kts | 137° |
| 2026-05-07 16:43 | 50.87971 | 7.12537 | 232 ft | 9 kts | 138° |
| 2026-05-07 16:43 | 50.87903 | 7.12608 | 232 ft | 12 kts | 171° |
| 2026-05-07 16:43 | 50.87821 | 7.12631 | 232 ft | 15 kts | 151° |
| 2026-05-07 16:44 | 50.87741 | 7.12739 | 232 ft | 15 kts | 138° |
| 2026-05-07 16:44 | 50.87667 | 7.12847 | 232 ft | 14 kts | 137° |
| 2026-05-07 16:44 | 50.87595 | 7.12951 | 232 ft | 17 kts | 138° |
| 2026-05-07 16:44 | 50.87502 | 7.13085 | 232 ft | 19 kts | 137° |
| 2026-05-07 16:45 | 50.87401 | 7.13231 | 232 ft | 21 kts | 137° |
| 2026-05-07 16:45 | 50.87345 | 7.13443 | 232 ft | 22 kts | 112° |
| 2026-05-07 16:45 | 50.87245 | 7.13613 | 236 ft | 21 kts | 137° |
| 2026-05-07 16:45 | 50.87135 | 7.13773 | 241 ft | 21 kts | 137° |
| 2026-05-07 16:46 | 50.87021 | 7.13937 | 245 ft | 22 kts | 137° |
| 2026-05-07 16:46 | 50.86911 | 7.14098 | 255 ft | 22 kts | 137° |
| 2026-05-07 16:46 | 50.86796 | 7.14265 | 256 ft | 23 kts | 137° |
| 2026-05-07 16:46 | 50.86691 | 7.14411 | 263 ft | 17 kts | 148° |
| 2026-05-07 16:47 | 50.86582 | 7.14392 | 262 ft | 16 kts | 182° |
| 2026-05-07 16:47 | 50.86505 | 7.14468 | 266 ft | 11 kts | 137° |
| 2026-05-07 16:47 | 50.86448 | 7.14553 | 269 ft | 14 kts | 137° |
| 2026-05-07 16:47 | 50.86358 | 7.14682 | 274 ft | 20 kts | 137° |
| 2026-05-07 16:48 | 50.86259 | 7.14826 | 280 ft | 18 kts | 138° |
| 2026-05-07 16:48 | 50.86174 | 7.14949 | 285 ft | 15 kts | 137° |
| 2026-05-07 16:48 | 50.86093 | 7.15066 | 288 ft | 19 kts | 137° |
| 2026-05-07 16:48 | 50.85992 | 7.15212 | 294 ft | 20 kts | 137° |
| 2026-05-07 16:49 | 50.85894 | 7.15355 | 296 ft | 19 kts | 137° |
| 2026-05-07 16:49 | 50.85789 | 7.15505 | 300 ft | 21 kts | 137° |
| 2026-05-07 16:49 | 50.85682 | 7.15661 | 302 ft | 21 kts | 137° |
| 2026-05-07 16:49 | 50.85577 | 7.15813 | 305 ft | 21 kts | 137° |
| 2026-05-07 16:50 | 50.85470 | 7.15967 | 308 ft | 21 kts | 137° |
| 2026-05-07 16:50 | 50.85365 | 7.16130 | 308 ft | 21 kts | 125° |
| 2026-05-07 16:50 | 50.85338 | 7.16325 | 308 ft | 17 kts | 82° |
| 2026-05-07 16:50 | 50.85409 | 7.16481 | 308 ft | 19 kts | 33° |
| 2026-05-07 16:51 | 50.85538 | 7.16509 | 308 ft | 20 kts | 342° |
| 2026-05-07 16:51 | 50.85659 | 7.16367 | 308 ft | 29 kts | 317° |
| 2026-05-07 16:51 | 50.85992 | 7.15885 | 299 ft | 101 kts | 317° |
| 2026-05-07 16:51 | 50.86660 | 7.14916 | 276 ft | 157 kts | 317° |
| 2026-05-07 16:52 | 50.87499 | 7.13680 | 785 ft | 166 kts | 318° |
| 2026-05-07 16:52 | 50.88354 | 7.12440 | 1594 ft | 168 kts | 318° |
| 2026-05-07 16:52 | 50.89421 | 7.11505 | 2047 ft | 191 kts | 353° |
| 2026-05-07 16:52 | 50.90778 | 7.11902 | 2638 ft | 207 kts | 22° |
| 2026-05-07 16:53 | 50.92124 | 7.12805 | 3527 ft | 211 kts | 22° |
| 2026-05-07 16:53 | 50.93395 | 7.14048 | 4326 ft | 219 kts | 44° |
| 2026-05-07 16:53 | 50.94280 | 7.16120 | 4938 ft | 240 kts | 62° |
| 2026-05-07 16:53 | 50.95062 | 7.18601 | 5431 ft | 262 kts | 62° |
| 2026-05-07 16:54 | 50.95879 | 7.21250 | 6225 ft | 271 kts | 63° |
| 2026-05-07 16:54 | 50.96712 | 7.23960 | 7088 ft | 276 kts | 63° |
| 2026-05-07 16:54 | 50.97570 | 7.26725 | 7930 ft | 282 kts | 63° |
| 2026-05-07 16:54 | 50.98447 | 7.29536 | 8807 ft | 287 kts | 63° |
| 2026-05-07 16:55 | 50.99330 | 7.32352 | 9694 ft | 291 kts | 63° |
| 2026-05-07 16:55 | 51.00222 | 7.35286 | 10369 ft | 303 kts | 68° |
| 2026-05-07 16:55 | 51.00589 | 7.38683 | 10644 ft | 327 kts | 94° |
| 2026-05-07 16:55 | 50.99933 | 7.42223 | 11000 ft | 345 kts | 121° |
| 2026-05-07 16:56 | 50.98354 | 7.45121 | 11637 ft | 351 kts | 137° |
| 2026-05-07 16:56 | 50.96575 | 7.47808 | 12435 ft | 355 kts | 137° |
| 2026-05-07 16:56 | 50.92925 | 7.53230 | 13932 ft | 364 kts | 138° |
| 2026-05-07 16:57 | 50.91065 | 7.55981 | 14590 ft | 367 kts | 137° |
| 2026-05-07 16:57 | 50.89190 | 7.58760 | 15267 ft | 370 kts | 137° |
| 2026-05-07 16:57 | 50.87299 | 7.61564 | 15953 ft | 374 kts | 138° |
| 2026-05-07 16:57 | 50.85396 | 7.64386 | 16623 ft | 377 kts | 138° |
| 2026-05-07 16:58 | 50.83471 | 7.67237 | 17312 ft | 380 kts | 138° |
| 2026-05-07 16:58 | 50.81538 | 7.70101 | 17988 ft | 383 kts | 138° |
| 2026-05-07 16:58 | 50.79580 | 7.73003 | 18592 ft | 387 kts | 138° |
| 2026-05-07 16:58 | 50.77612 | 7.75915 | 19138 ft | 390 kts | 138° |
| 2026-05-07 16:59 | 50.75624 | 7.78858 | 19688 ft | 393 kts | 138° |
| 2026-05-07 16:59 | 50.73617 | 7.81831 | 20220 ft | 396 kts | 138° |
| 2026-05-07 16:59 | 50.71601 | 7.84810 | 20745 ft | 399 kts | 138° |
| 2026-05-07 16:59 | 50.69566 | 7.87806 | 21280 ft | 402 kts | 138° |
| 2026-05-07 17:00 | 50.67506 | 7.90831 | 21795 ft | 406 kts | 138° |
| 2026-05-07 17:00 | 50.65433 | 7.93868 | 22295 ft | 409 kts | 138° |
| 2026-05-07 17:00 | 50.63367 | 7.96892 | 22782 ft | 412 kts | 138° |
| 2026-05-07 17:00 | 50.61256 | 7.99982 | 23274 ft | 416 kts | 138° |
| 2026-05-07 17:01 | 50.59130 | 8.03095 | 23724 ft | 419 kts | 138° |
| 2026-05-07 17:01 | 50.56987 | 8.06233 | 24119 ft | 422 kts | 138° |
| 2026-05-07 17:01 | 50.54828 | 8.09391 | 24528 ft | 425 kts | 138° |
| 2026-05-07 17:01 | 50.52651 | 8.12571 | 24935 ft | 427 kts | 138° |
| 2026-05-07 17:02 | 50.50468 | 8.15751 | 25330 ft | 430 kts | 138° |
| 2026-05-07 17:02 | 50.48259 | 8.18960 | 25729 ft | 432 kts | 138° |
| 2026-05-07 17:02 | 50.46044 | 8.22167 | 26118 ft | 435 kts | 138° |
| 2026-05-07 17:02 | 50.43815 | 8.25392 | 26502 ft | 437 kts | 138° |
| 2026-05-07 17:03 | 50.41581 | 8.28628 | 26885 ft | 439 kts | 138° |
| 2026-05-07 17:03 | 50.39335 | 8.31884 | 27265 ft | 442 kts | 138° |
| 2026-05-07 17:03 | 50.37074 | 8.35159 | 27652 ft | 444 kts | 138° |
| 2026-05-07 17:03 | 50.34803 | 8.38436 | 28040 ft | 446 kts | 138° |
| 2026-05-07 17:04 | 50.33293 | 8.40610 | 28266 ft | 448 kts | 138° |
| 2026-05-07 17:04 | 50.30989 | 8.43917 | 28601 ft | 450 kts | 138° |
| 2026-05-07 17:04 | 50.28676 | 8.47234 | 28937 ft | 453 kts | 138° |
| 2026-05-07 17:04 | 50.26347 | 8.50571 | 29265 ft | 455 kts | 138° |
| 2026-05-07 17:05 | 50.23245 | 8.55010 | 29693 ft | 458 kts | 138° |
| 2026-05-07 17:05 | 50.21654 | 8.57285 | 29903 ft | 459 kts | 138° |
| 2026-05-07 17:05 | 50.19293 | 8.60656 | 30204 ft | 461 kts | 138° |
| 2026-05-07 17:05 | 50.16918 | 8.64042 | 30467 ft | 463 kts | 138° |
| 2026-05-07 17:06 | 50.14539 | 8.67431 | 30738 ft | 465 kts | 138° |
| 2026-05-07 17:06 | 50.12144 | 8.70837 | 31104 ft | 464 kts | 138° |
| 2026-05-07 17:06 | 50.09756 | 8.74228 | 31454 ft | 463 kts | 138° |
| 2026-05-07 17:06 | 50.07399 | 8.77567 | 31802 ft | 463 kts | 138° |
| 2026-05-07 17:07 | 50.05015 | 8.80941 | 32141 ft | 463 kts | 138° |
| 2026-05-07 17:07 | 50.02631 | 8.84321 | 32487 ft | 463 kts | 138° |
| 2026-05-07 17:07 | 50.00248 | 8.87699 | 32830 ft | 463 kts | 138° |
| 2026-05-07 17:07 | 49.97867 | 8.91068 | 33046 ft | 463 kts | 138° |
| 2026-05-07 17:08 | 49.93141 | 8.97740 | 33067 ft | 458 kts | 138° |
| 2026-05-07 17:08 | 49.88423 | 9.04376 | 33055 ft | 457 kts | 139° |
| 2026-05-07 17:09 | 49.83718 | 9.10974 | 33055 ft | 457 kts | 139° |
| 2026-05-07 17:09 | 49.78995 | 9.17584 | 33060 ft | 458 kts | 139° |
| 2026-05-07 17:10 | 49.74266 | 9.24181 | 33057 ft | 458 kts | 139° |
| 2026-05-07 17:10 | 49.69532 | 9.30771 | 33061 ft | 458 kts | 139° |
| 2026-05-07 17:11 | 49.64822 | 9.37308 | 33057 ft | 458 kts | 139° |
| 2026-05-07 17:11 | 49.60275 | 9.44167 | 33065 ft | 459 kts | 132° |
| 2026-05-07 17:12 | 49.56074 | 9.51567 | 33054 ft | 459 kts | 132° |
| 2026-05-07 17:12 | 49.51858 | 9.58949 | 33057 ft | 459 kts | 132° |
| 2026-05-07 17:13 | 49.47629 | 9.66319 | 33057 ft | 459 kts | 132° |
| 2026-05-07 17:13 | 49.43407 | 9.73677 | 33059 ft | 459 kts | 132° |
| 2026-05-07 17:14 | 49.39180 | 9.81034 | 33061 ft | 459 kts | 132° |
| 2026-05-07 17:14 | 49.34953 | 9.88366 | 33060 ft | 459 kts | 133° |
| 2026-05-07 17:15 | 49.30707 | 9.95665 | 33049 ft | 459 kts | 133° |
| 2026-05-07 17:15 | 49.26487 | 10.02922 | 33053 ft | 459 kts | 133° |
| 2026-05-07 17:16 | 49.22235 | 10.10231 | 33051 ft | 459 kts | 133° |
| 2026-05-07 17:16 | 49.20101 | 10.13881 | 32821 ft | 460 kts | 133° |
| 2026-05-07 17:16 | 49.17964 | 10.17526 | 31952 ft | 463 kts | 133° |
| 2026-05-07 17:17 | 49.15800 | 10.21208 | 30893 ft | 465 kts | 133° |
| 2026-05-07 17:17 | 49.13601 | 10.24941 | 29995 ft | 467 kts | 133° |
| 2026-05-07 17:17 | 49.11445 | 10.28508 | 29381 ft | 460 kts | 134° |
| 2026-05-07 17:17 | 49.09234 | 10.32085 | 28726 ft | 454 kts | 135° |
| 2026-05-07 17:18 | 49.07094 | 10.35499 | 28092 ft | 449 kts | 135° |
| 2026-05-07 17:18 | 49.04940 | 10.38910 | 27445 ft | 444 kts | 135° |
| 2026-05-07 17:18 | 49.02800 | 10.42297 | 26835 ft | 440 kts | 135° |
| 2026-05-07 17:18 | 49.00691 | 10.45648 | 26222 ft | 436 kts | 135° |
| 2026-05-07 17:19 | 48.98598 | 10.48983 | 25616 ft | 433 kts | 135° |
| 2026-05-07 17:19 | 48.96529 | 10.52281 | 25004 ft | 430 kts | 135° |
| 2026-05-07 17:19 | 48.94475 | 10.55555 | 24405 ft | 426 kts | 135° |
| 2026-05-07 17:19 | 48.92436 | 10.58810 | 23800 ft | 423 kts | 135° |
| 2026-05-07 17:20 | 48.90408 | 10.62050 | 23199 ft | 420 kts | 135° |
| 2026-05-07 17:20 | 48.88402 | 10.65245 | 22673 ft | 415 kts | 135° |
| 2026-05-07 17:20 | 48.86420 | 10.68395 | 22172 ft | 410 kts | 135° |
| 2026-05-07 17:20 | 48.84459 | 10.71498 | 21685 ft | 405 kts | 136° |
| 2026-05-07 17:21 | 48.82522 | 10.74559 | 21210 ft | 400 kts | 136° |
| 2026-05-07 17:21 | 48.80598 | 10.77591 | 20729 ft | 396 kts | 136° |
| 2026-05-07 17:21 | 48.78726 | 10.80633 | 20143 ft | 396 kts | 131° |
| 2026-05-07 17:21 | 48.77015 | 10.83936 | 19450 ft | 399 kts | 129° |
| 2026-05-07 17:22 | 48.75339 | 10.87287 | 18901 ft | 398 kts | 128° |
| 2026-05-07 17:22 | 48.73694 | 10.90646 | 18400 ft | 396 kts | 128° |
| 2026-05-07 17:22 | 48.72064 | 10.93990 | 17860 ft | 393 kts | 128° |
| 2026-05-07 17:22 | 48.70442 | 10.97305 | 17331 ft | 390 kts | 128° |
| 2026-05-07 17:23 | 48.68828 | 11.00578 | 16826 ft | 387 kts | 129° |
| 2026-05-07 17:23 | 48.67213 | 11.03831 | 16353 ft | 384 kts | 129° |
| 2026-05-07 17:23 | 48.65613 | 11.07039 | 15888 ft | 380 kts | 129° |
| 2026-05-07 17:23 | 48.64025 | 11.10220 | 15452 ft | 378 kts | 129° |
| 2026-05-07 17:24 | 48.62464 | 11.13338 | 15077 ft | 376 kts | 129° |
| 2026-05-07 17:24 | 48.60890 | 11.16477 | 14710 ft | 374 kts | 129° |
| 2026-05-07 17:24 | 48.59304 | 11.19636 | 14349 ft | 371 kts | 129° |
| 2026-05-07 17:24 | 48.57748 | 11.22731 | 13993 ft | 369 kts | 129° |
| 2026-05-07 17:25 | 48.56200 | 11.25800 | 13604 ft | 366 kts | 129° |
| 2026-05-07 17:25 | 48.54654 | 11.28857 | 13201 ft | 364 kts | 129° |
| 2026-05-07 17:25 | 48.53146 | 11.31841 | 12811 ft | 362 kts | 129° |
| 2026-05-07 17:25 | 48.51606 | 11.34895 | 12397 ft | 360 kts | 130° |
| 2026-05-07 17:26 | 48.50093 | 11.37888 | 12028 ft | 358 kts | 130° |
| 2026-05-07 17:26 | 48.48605 | 11.40829 | 11771 ft | 357 kts | 130° |
| 2026-05-07 17:26 | 48.47102 | 11.43800 | 11511 ft | 356 kts | 130° |
| 2026-05-07 17:26 | 48.45652 | 11.46819 | 11277 ft | 356 kts | 124° |
| 2026-05-07 17:27 | 48.44528 | 11.50133 | 11069 ft | 356 kts | 114° |
| 2026-05-07 17:27 | 48.43800 | 11.53715 | 11039 ft | 358 kts | 103° |
| 2026-05-07 17:27 | 48.43485 | 11.57428 | 11051 ft | 359 kts | 92° |
| 2026-05-07 17:27 | 48.43599 | 11.61189 | 11053 ft | 360 kts | 83° |
| 2026-05-07 17:28 | 48.43900 | 11.64939 | 11054 ft | 360 kts | 83° |
| 2026-05-07 17:28 | 48.44194 | 11.68687 | 11055 ft | 360 kts | 83° |
| 2026-05-07 17:28 | 48.44485 | 11.72435 | 11053 ft | 360 kts | 83° |
| 2026-05-07 17:28 | 48.44775 | 11.76182 | 11047 ft | 359 kts | 83° |
| 2026-05-07 17:29 | 48.45061 | 11.79903 | 10613 ft | 356 kts | 83° |
| 2026-05-07 17:29 | 48.45338 | 11.83540 | 10115 ft | 343 kts | 83° |
| 2026-05-07 17:29 | 48.45603 | 11.87038 | 9606 ft | 330 kts | 83° |
| 2026-05-07 17:29 | 48.45857 | 11.90409 | 9076 ft | 318 kts | 83° |
| 2026-05-07 17:30 | 48.46100 | 11.93663 | 8563 ft | 308 kts | 83° |
| 2026-05-07 17:30 | 48.46339 | 11.96823 | 8036 ft | 299 kts | 83° |
| 2026-05-07 17:30 | 48.46571 | 11.99910 | 7434 ft | 294 kts | 83° |
| 2026-05-07 17:30 | 48.46800 | 12.02955 | 6830 ft | 290 kts | 83° |
| 2026-05-07 17:31 | 48.47022 | 12.05958 | 6208 ft | 287 kts | 83° |
| 2026-05-07 17:31 | 48.47241 | 12.08920 | 5574 ft | 283 kts | 83° |
| 2026-05-07 17:31 | 48.47456 | 12.11866 | 5127 ft | 281 kts | 83° |
| 2026-05-07 17:31 | 48.47663 | 12.14738 | 4839 ft | 278 kts | 83° |
| 2026-05-07 17:32 | 48.47512 | 12.17612 | 4576 ft | 277 kts | 109° |
| 2026-05-07 17:32 | 48.46515 | 12.20063 | 4311 ft | 276 kts | 137° |
| 2026-05-07 17:32 | 48.44890 | 12.21518 | 4062 ft | 271 kts | 166° |
| 2026-05-07 17:32 | 48.43644 | 12.21817 | 3991 ft | 268 kts | 184° |
| 2026-05-07 17:33 | 48.41422 | 12.20652 | 3981 ft | 246 kts | 223° |
| 2026-05-07 17:33 | 48.40312 | 12.18843 | 3986 ft | 227 kts | 233° |
| 2026-05-07 17:33 | 48.39458 | 12.16946 | 3992 ft | 215 kts | 249° |
| 2026-05-07 17:33 | 48.39118 | 12.14791 | 3999 ft | 212 kts | 265° |
| 2026-05-07 17:34 | 48.38960 | 12.12587 | 3998 ft | 212 kts | 266° |
| 2026-05-07 17:34 | 48.38802 | 12.10378 | 3998 ft | 214 kts | 265° |
| 2026-05-07 17:34 | 48.38639 | 12.08160 | 4000 ft | 212 kts | 265° |
| 2026-05-07 17:34 | 48.38478 | 12.05980 | 4002 ft | 212 kts | 264° |
| 2026-05-07 17:35 | 48.38312 | 12.03747 | 4001 ft | 212 kts | 265° |
| 2026-05-07 17:35 | 48.38151 | 12.01582 | 3960 ft | 204 kts | 265° |
| 2026-05-07 17:35 | 48.37994 | 11.99474 | 3772 ft | 202 kts | 264° |
| 2026-05-07 17:35 | 48.37844 | 11.97474 | 3530 ft | 187 kts | 264° |
| 2026-05-07 17:36 | 48.37704 | 11.95600 | 3282 ft | 174 kts | 266° |
| 2026-05-07 17:36 | 48.37572 | 11.93846 | 3069 ft | 163 kts | 266° |
| 2026-05-07 17:36 | 48.37449 | 11.92204 | 2854 ft | 153 kts | 265° |
| 2026-05-07 17:36 | 48.37334 | 11.90682 | 2649 ft | 142 kts | 265° |
| 2026-05-07 17:37 | 48.37224 | 11.89214 | 2447 ft | 141 kts | 265° |
| 2026-05-07 17:37 | 48.37114 | 11.87757 | 2240 ft | 141 kts | 265° |
| 2026-05-07 17:37 | 48.37003 | 11.86285 | 2062 ft | 141 kts | 265° |
| 2026-05-07 17:37 | 48.36891 | 11.84813 | 1869 ft | 143 kts | 266° |
| 2026-05-07 17:38 | 48.36776 | 11.83346 | 1683 ft | 140 kts | 265° |
| 2026-05-07 17:38 | 48.36669 | 11.81896 | 1502 ft | 139 kts | 265° |
| 2026-05-07 17:38 | 48.36573 | 11.80607 | 1485 ft | 95 kts | 263° |
| 2026-05-07 17:38 | 48.36527 | 11.80012 | 1485 ft | 39 kts | 263° |
| 2026-05-07 17:39 | 48.36444 | 11.79692 | 1482 ft | 27 kts | 237° |
| 2026-05-07 17:39 | 48.36360 | 11.79520 | 1478 ft | 19 kts | 234° |
| 2026-05-07 17:39 | 48.36300 | 11.79398 | 1481 ft | 12 kts | 234° |
| 2026-05-07 17:39 | 48.36289 | 11.79375 | 1478 ft | 0 kts | 233° |
| 2026-05-07 17:41 | 48.36288 | 11.79373 | 1478 ft | 1 kts | 233° |
| 2026-05-07 17:41 | 48.36248 | 11.79313 | 1482 ft | 13 kts | 213° |
| 2026-05-07 17:41 | 48.36165 | 11.79303 | 1482 ft | 13 kts | 173° |
| 2026-05-07 17:41 | 48.36077 | 11.79318 | 1472 ft | 13 kts | 173° |
| 2026-05-07 17:42 | 48.35994 | 11.79332 | 1480 ft | 11 kts | 173° |
| 2026-05-07 17:42 | 48.35923 | 11.79357 | 1475 ft | 10 kts | 158° |
| 2026-05-07 17:42 | 48.35861 | 11.79384 | 1480 ft | 9 kts | 172° |
| 2026-05-07 17:42 | 48.35802 | 11.79393 | 1485 ft | 10 kts | 173° |
| 2026-05-07 17:43 | 48.35720 | 11.79407 | 1473 ft | 12 kts | 173° |
| 2026-05-07 17:43 | 48.35638 | 11.79422 | 1482 ft | 15 kts | 173° |
| 2026-05-07 17:43 | 48.35537 | 11.79439 | 1482 ft | 14 kts | 173° |
| 2026-05-07 17:43 | 48.35443 | 11.79456 | 1475 ft | 13 kts | 173° |
| 2026-05-07 17:44 | 48.35341 | 11.79473 | 1476 ft | 16 kts | 173° |
| 2026-05-07 17:44 | 48.35238 | 11.79491 | 1479 ft | 14 kts | 173° |
| 2026-05-07 17:44 | 48.35146 | 11.79507 | 1485 ft | 9 kts | 173° |
| 2026-05-07 17:44 | 48.35108 | 11.79496 | 1485 ft | 4 kts | 230° |
| 2026-05-07 17:45 | 48.35105 | 11.79449 | 1485 ft | 5 kts | 264° |
| 2026-05-07 17:45 | 48.35101 | 11.79395 | 1485 ft | 5 kts | 263° |
| 2026-05-07 17:45 | 48.35099 | 11.79369 | 1485 ft | 1 kts | 263° |
| 2026-05-07 17:45 | 48.35099 | 11.79368 | 1476 ft | 0 kts | 263° |